Time;durP1;ratioP1;P1;durP2;ratioP2;P2;SDS_P1;SDS_P2;PMS_P1;PMS_P2;Temp;Humidity;BMP_temperature;BMP_pressure;BME280_temperature;BME280_humidity;BME280_pressure;Samples;Min_cycle;Max_cycle;Signal;HPM_P1;HPM_P2
2022/12/26 00:00:59;;;;;;;;;;;;;;;;;;4464755;32;19936;-79
2022/12/26 00:03:25;;;;;;;;;;;;;;;;;;4466061;32;19975;-79
2022/12/26 00:05:50;;;;;;;;;;;;;;;;;;4462472;32;19932;-82
2022/12/26 00:08:18;;;;;;;;;;;;;;;;;;4458112;32;19945;-80
2022/12/26 00:10:43;;;;;;;;;;;;;;;;;;4453959;32;19933;-81
2022/12/26 00:13:08;;;;;;;;;;;;;;;;;;4452569;32;19967;-80
2022/12/26 00:15:33;;;;;;;;;;;;;;;;;;4453831;32;20274;-81
2022/12/26 00:17:58;;;;;;;;;;;;;;;;;;4455520;32;19944;-80
2022/12/26 00:20:24;;;;;;;;;;;;;;;;;;4455299;32;19940;-82
2022/12/26 00:22:49;;;;;;;;;;;;;;;;;;4453420;32;19941;-80
2022/12/26 00:25:14;;;;;;;;;;;;;;;;;;4455139;32;19975;-80
2022/12/26 00:27:39;;;;;;;;;;;;;;;;;;4456626;32;19932;-81
2022/12/26 00:30:04;;;;;;;;;;;;;;;;;;4454668;32;19933;-81
2022/12/26 00:32:29;;;;;;;;;;;;;;;;;;4454735;32;19984;-79
2022/12/26 00:34:54;;;;;;;;;;;;;;;;;;4453772;32;19943;-78
2022/12/26 00:37:19;;;;;;;;;;;;;;;;;;4452817;32;19947;-77
2022/12/26 00:39:44;;;;;;;;;;;;;;;;;;4452869;32;19944;-77
2022/12/26 00:42:09;;;;;;;;;;;;;;;;;;4453031;32;19943;-77
2022/12/26 00:44:34;;;;;;;;;;;;;;;;;;4452559;32;19933;-77
2022/12/26 00:47:00;;;;;;;;;;;;;;;;;;4452700;32;19984;-78
2022/12/26 00:49:25;;;;;;;;;;;;;;;;;;4452965;32;20336;-78
2022/12/26 00:51:50;;;;;;;;;;;;;;;;;;4452696;32;19972;-77
2022/12/26 00:54:15;;;;;;;;;;;;;;;;;;4452717;32;19992;-77
2022/12/26 00:56:40;;;;;;;;;;;;;;;;;;4451956;32;19981;-78
2022/12/26 00:59:05;;;;;;;;;;;;;;;;;;4452676;32;19951;-79
2022/12/26 01:01:31;;;;;;;;;;;;;;;;;;4452266;32;19936;-78
2022/12/26 01:03:56;;;;;;;;;;;;;;;;;;4454157;32;20420;-78
2022/12/26 01:06:21;;;;;;;;;;;;;;;;;;4451235;32;20018;-78
2022/12/26 01:08:46;;;;;;;;;;;;;;;;;;4450814;32;19984;-77
2022/12/26 01:11:11;;;;;;;;;;;;;;;;;;4452628;32;19966;-78
2022/12/26 01:13:36;;;;;;;;;;;;;;;;;;4453077;32;20043;-78
2022/12/26 01:16:01;;;;;;;;;;;;;;;;;;4451778;32;19943;-78
2022/12/26 01:18:27;;;;;;;;;;;;;;;;;;4452183;32;20277;-79
2022/12/26 01:20:52;;;;;;;;;;;;;;;;;;4453727;32;20290;-78
2022/12/26 01:23:17;;;;;;;;;;;;;;;;;;4452959;32;20360;-79
2022/12/26 01:25:42;;;;;;;;;;;;;;;;;;4453443;32;20049;-78
2022/12/26 01:28:07;;;;;;;;;;;;;;;;;;4452359;32;19936;-79
2022/12/26 01:30:32;;;;;;;;;;;;;;;;;;4451723;32;19966;-79
2022/12/26 01:32:57;;;;;;;;;;;;;;;;;;4452542;32;19932;-79
2022/12/26 01:35:23;;;;;;;;;;;;;;;;;;4453093;32;20269;-79
2022/12/26 01:37:48;;;;;;;;;;;;;;;;;;4453412;32;19952;-80
2022/12/26 01:40:13;;;;;;;;;;;;;;;;;;4454123;32;20302;-79
2022/12/26 01:42:38;;;;;;;;;;;;;;;;;;4453755;32;19936;-78
2022/12/26 01:45:03;;;;;;;;;;;;;;;;;;4452410;32;19995;-79
2022/12/26 01:47:28;;;;;;;;;;;;;;;;;;4451767;32;19936;-80
2022/12/26 01:49:54;;;;;;;;;;;;;;;;;;4452100;32;20325;-80
2022/12/26 01:52:19;;;;;;;;;;;;;;;;;;4453062;32;19947;-80
2022/12/26 01:54:44;;;;;;;;;;;;;;;;;;4452983;32;19937;-80
2022/12/26 01:57:09;;;;;;;;;;;;;;;;;;4451442;32;19959;-81
2022/12/26 01:59:34;;;;;;;;;;;;;;;;;;4451007;32;20310;-80
2022/12/26 02:01:59;;;;;;;;;;;;;;;;;;4452990;32;19941;-81
2022/12/26 02:07:08;;;;;;;;;;;;;;;;;;4453551;32;19950;-81
2022/12/26 02:09:33;;;;;;;;;;;;;;;;;;4450758;32;19936;-80
2022/12/26 02:11:58;;;;;;;;;;;;;;;;;;4451539;32;19933;-81
2022/12/26 02:14:23;;;;;;;;;;;;;;;;;;4451737;32;19941;-82
2022/12/26 02:16:48;;;;;;;;;;;;;;;;;;4452593;32;20361;-81
2022/12/26 02:19:14;;;;;;;;;;;;;;;;;;4450426;32;19965;-81
2022/12/26 02:21:39;;;;;;;;;;;;;;;;;;4451718;32;19948;-81
2022/12/26 02:24:04;;;;;;;;;;;;;;;;;;4452401;32;19990;-81
2022/12/26 02:26:29;;;;;;;;;;;;;;;;;;4452475;32;19953;-81
2022/12/26 02:28:54;;;;;;;;;;;;;;;;;;4453208;32;19933;-80
2022/12/26 02:31:19;;;;;;;;;;;;;;;;;;4452714;32;19941;-81
2022/12/26 02:33:44;;;;;;;;;;;;;;;;;;4454198;32;19972;-80
2022/12/26 02:36:09;;;;;;;;;;;;;;;;;;4451581;32;19979;-81
2022/12/26 02:38:34;;;;;;;;;;;;;;;;;;4450536;32;19944;-81
2022/12/26 02:40:59;;;;;;;;;;;;;;;;;;4451623;32;19940;-79
2022/12/26 02:43:25;;;;;;;;;;;;;;;;;;4454058;32;20303;-80
2022/12/26 02:48:33;;;;;;;;;;;;;;;;;;4455032;32;20268;-80
2022/12/26 03:17:18;;;;;;;;;;;;;;;;;;4468700;32;19952;-78
2022/12/26 03:18:20;;;;;;;;;;;;;;;;;;4467256;32;19943;-78
2022/12/26 03:20:45;;;;;;;;;;;;;;;;;;4468511;32;19944;-77
2022/12/26 03:23:10;;;;;;;;;;;;;;;;;;4460570;32;19981;-78
2022/12/26 03:28:19;;;;;;;;;;;;;;;;;;4454809;32;19973;-77
2022/12/26 03:30:50;;;;;;;;;;;;;;;;;;4455288;32;19940;-79
2022/12/26 03:35:59;;;;;;;;;;;;;;;;;;4455366;32;20382;-78
2022/12/26 03:38:24;;;;;;;;;;;;;;;;;;4453753;32;20309;-78
2022/12/26 04:44:08;;;;;;;;;;;;;;;;;;4405604;32;19996;-77
2022/12/26 04:46:33;;;;;;;;;;;;;;;;;;4454349;32;19944;-77
2022/12/26 04:51:42;;;;;;;;;;;;;;;;;;4454963;32;19994;-77
2022/12/26 04:54:07;;;;;;;;;;;;;;;;;;4454156;32;19941;-76
2022/12/26 04:56:32;;;;;;;;;;;;;;;;;;4451713;32;19947;-75
2022/12/26 04:58:58;;;;;;;;;;;;;;;;;;4453597;32;19940;-76
2022/12/26 05:09:38;;;;;;;;;;;;;;;;;;4452939;32;19988;-75
2022/12/26 05:12:03;;;;;;;;;;;;;;;;;;4451715;32;19961;-76
2022/12/26 05:14:30;;;;;;;;;;;;;;;;;;4452327;32;19940;-75
2022/12/26 05:30:35;;;;;;;;;;;;;;;;;;4453713;32;19961;-76
2022/12/26 05:35:44;;;;;;;;;;;;;;;;;;4452682;32;19931;-77
2022/12/26 05:38:09;;;;;;;;;;;;;;;;;;4452030;32;19978;-76
2022/12/26 05:40:34;;;;;;;;;;;;;;;;;;4451975;32;19963;-75
2022/12/26 05:42:59;;;;;;;;;;;;;;;;;;4453673;32;19979;-77
2022/12/26 05:45:25;;;;;;;;;;;;;;;;;;4455187;32;19970;-76
2022/12/26 05:47:50;;;;;;;;;;;;;;;;;;4454608;32;19932;-75
2022/12/26 05:50:15;;;;;;;;;;;;;;;;;;4453385;32;19933;-76
2022/12/26 05:52:40;;;;;;;;;;;;;;;;;;4453075;32;20291;-74
2022/12/26 05:55:05;;;;;;;;;;;;;;;;;;4451948;32;19949;-75
2022/12/26 05:57:31;;;;;;;;;;;;;;;;;;4452783;32;19948;-75
2022/12/26 05:59:56;;;;;;;;;;;;;;;;;;4452634;32;20030;-77
2022/12/26 06:02:21;;;;;;;;;;;;;;;;;;4452570;32;19947;-75
2022/12/26 06:04:46;;;;;;;;;;;;;;;;;;4451765;32;20036;-76
2022/12/26 06:07:11;;;;;;;;;;;;;;;;;;4452867;32;19937;-77
2022/12/26 06:09:37;;;;;;;;;;;;;;;;;;4451720;32;19982;-76
2022/12/26 06:12:02;;;;;;;;;;;;;;;;;;4437911;32;19940;-75
2022/12/26 06:14:27;;;;;;;;;;;;;;;;;;4438029;32;19986;-76
2022/12/26 06:16:52;;;;;;;;;;;;;;;;;;4453469;32;19932;-75
2022/12/26 06:19:17;;;;;;;;;;;;;;;;;;4455241;32;19944;-76
2022/12/26 06:21:42;;;;;;;;;;;;;;;;;;4440756;32;19944;-77
2022/12/26 06:24:07;;;;;;;;;;;;;;;;;;4455535;32;19984;-77
2022/12/26 06:26:32;;;;;;;;;;;;;;;;;;4454969;32;20340;-76
2022/12/26 06:28:57;;;;;;;;;;;;;;;;;;4455149;32;20339;-77
2022/12/26 06:31:23;;;;;;;;;;;;;;;;;;4462747;32;20266;-73
2022/12/26 06:33:48;;;;;;;;;;;;;;;;;;4463519;32;19941;-75
2022/12/26 06:36:13;;;;;;;;;;;;;;;;;;4448423;32;19937;-75
2022/12/26 06:38:38;;;;;;;;;;;;;;;;;;4461836;32;19950;-77
2022/12/26 06:41:03;;;;;;;;;;;;;;;;;;4449141;32;19980;-75
2022/12/26 06:43:28;;;;;;;;;;;;;;;;;;4441831;32;20284;-77
2022/12/26 06:45:53;;;;;;;;;;;;;;;;;;4453972;32;20346;-75
2022/12/26 06:48:18;;;;;;;;;;;;;;;;;;4439740;32;20334;-77
2022/12/26 06:50:43;;;;;;;;;;;;;;;;;;4440032;32;19948;-76
2022/12/26 06:53:08;;;;;;;;;;;;;;;;;;4454341;32;19946;-77
2022/12/26 06:55:34;;;;;;;;;;;;;;;;;;4453894;32;19933;-76
2022/12/26 06:57:59;;;;;;;;;;;;;;;;;;4453743;32;19951;-77
2022/12/26 07:00:24;;;;;;;;;;;;;;;;;;4454444;32;20286;-76
2022/12/26 07:02:51;;;;;;;;;;;;;;;;;;4453746;32;19993;-76
2022/12/26 07:05:16;;;;;;;;;;;;;;;;;;4453851;32;19947;-76
2022/12/26 07:07:41;;;;;;;;;;;;;;;;;;4456284;32;19937;-77
2022/12/26 07:10:06;;;;;;;;;;;;;;;;;;4453985;32;20086;-77
2022/12/26 07:12:31;;;;;;;;;;;;;;;;;;4454334;32;19940;-75
2022/12/26 07:14:56;;;;;;;;;;;;;;;;;;4441707;32;19984;-77
2022/12/26 07:17:21;;;;;;;;;;;;;;;;;;4440353;32;19949;-76
2022/12/26 07:19:47;;;;;;;;;;;;;;;;;;4439636;32;20048;-75
2022/12/26 07:22:12;;;;;;;;;;;;;;;;;;4440492;32;19973;-75
2022/12/26 07:24:37;;;;;;;;;;;;;;;;;;4439895;32;19971;-76
2022/12/26 07:27:02;;;;;;;;;;;;;;;;;;4454729;32;19974;-75
2022/12/26 07:29:27;;;;;;;;;;;;;;;;;;4453435;32;20007;-74
2022/12/26 07:31:52;;;;;;;;;;;;;;;;;;4440159;32;19992;-76
2022/12/26 07:34:17;;;;;;;;;;;;;;;;;;4453682;32;19972;-75
2022/12/26 07:36:42;;;;;;;;;;;;;;;;;;4454117;32;19956;-76
2022/12/26 07:39:07;;;;;;;;;;;;;;;;;;4454586;32;19970;-77
2022/12/26 07:44:17;;;;;;;;;;;;;;;;;;4455262;32;19986;-79
2022/12/26 07:46:42;;;;;;;;;;;;;;;;;;4441174;32;19934;-77
2022/12/26 07:49:07;;;;;;;;;;;;;;;;;;4455451;32;19994;-73
2022/12/26 07:51:32;;;;;;;;;;;;;;;;;;4454961;32;19974;-77
2022/12/26 07:53:57;;;;;;;;;;;;;;;;;;4441492;32;19994;-76
2022/12/26 07:56:22;;;;;;;;;;;;;;;;;;4453984;32;20306;-78
2022/12/26 07:58:47;;;;;;;;;;;;;;;;;;4454514;32;19951;-78
2022/12/26 08:01:12;;;;;;;;;;;;;;;;;;4453980;32;19940;-80
2022/12/26 08:03:37;;;;;;;;;;;;;;;;;;4455052;32;20309;-80
2022/12/26 08:06:02;;;;;;;;;;;;;;;;;;4454528;32;19932;-79
2022/12/26 08:08:28;;;;;;;;;;;;;;;;;;4454563;32;19992;-81
2022/12/26 08:10:53;;;;;;;;;;;;;;;;;;4454761;32;19951;-81
2022/12/26 08:13:18;;;;;;;;;;;;;;;;;;4454315;32;19933;-80
2022/12/26 08:15:43;;;;;;;;;;;;;;;;;;4454664;32;19937;-81
2022/12/26 08:18:08;;;;;;;;;;;;;;;;;;4439553;32;19955;-81
2022/12/26 08:20:33;;;;;;;;;;;;;;;;;;4453981;32;19933;-79
2022/12/26 08:22:58;;;;;;;;;;;;;;;;;;4453805;32;19967;-80
2022/12/26 08:25:23;;;;;;;;;;;;;;;;;;4453449;32;19948;-79
2022/12/26 08:27:49;;;;;;;;;;;;;;;;;;4453237;32;19936;-79
2022/12/26 08:30:14;;;;;;;;;;;;;;;;;;4455924;32;19947;-74
2022/12/26 08:32:39;;;;;;;;;;;;;;;;;;4454378;32;19965;-76
2022/12/26 08:35:04;;;;;;;;;;;;;;;;;;4452898;32;19961;-75
2022/12/26 08:37:29;;;;;;;;;;;;;;;;;;4454966;32;19968;-75
2022/12/26 08:39:54;;;;;;;;;;;;;;;;;;4439335;32;19993;-77
2022/12/26 08:42:19;;;;;;;;;;;;;;;;;;4454710;32;19950;-78
2022/12/26 08:44:44;;;;;;;;;;;;;;;;;;4452922;32;19956;-76
2022/12/26 08:47:09;;;;;;;;;;;;;;;;;;4454051;32;19977;-77
2022/12/26 08:49:34;;;;;;;;;;;;;;;;;;4453113;32;19968;-77
2022/12/26 08:52:00;;;;;;;;;;;;;;;;;;4453803;32;20074;-77
2022/12/26 08:54:25;;;;;;;;;;;;;;;;;;4452817;32;19932;-77
2022/12/26 08:56:50;;;;;;;;;;;;;;;;;;4453812;32;19933;-77
2022/12/26 08:59:15;;;;;;;;;;;;;;;;;;4438760;32;19950;-79
2022/12/26 09:01:40;;;;;;;;;;;;;;;;;;4452605;32;19932;-78
2022/12/26 09:04:06;;;;;;;;;;;;;;;;;;4453126;32;19995;-78
2022/12/26 09:06:31;;;;;;;;;;;;;;;;;;4452560;32;20354;-78
2022/12/26 09:08:56;;;;;;;;;;;;;;;;;;4452390;32;19964;-78
2022/12/26 09:11:21;;;;;;;;;;;;;;;;;;4452590;32;19970;-79
2022/12/26 09:13:46;;;;;;;;;;;;;;;;;;4452268;32;19937;-78
2022/12/26 09:16:11;;;;;;;;;;;;;;;;;;4438487;32;19941;-76
2022/12/26 09:18:36;;;;;;;;;;;;;;;;;;4454134;32;19968;-77
2022/12/26 09:21:01;;;;;;;;;;;;;;;;;;4452603;32;19932;-79
2022/12/26 09:23:27;;;;;;;;;;;;;;;;;;4452810;32;19990;-78
2022/12/26 09:25:52;;;;;;;;;;;;;;;;;;4452131;32;20317;-78
2022/12/26 09:28:17;;;;;;;;;;;;;;;;;;4451927;32;19972;-77
2022/12/26 09:30:43;;;;;;;;;;;;;;;;;;4452717;32;19966;-79
2022/12/26 09:33:08;;;;;;;;;;;;;;;;;;4451546;32;19964;-78
2022/12/26 09:35:33;;;;;;;;;;;;;;;;;;4453818;32;19932;-81
2022/12/26 09:37:59;;;;;;;;;;;;;;;;;;4442403;32;20257;-79
2022/12/26 09:40:24;;;;;;;;;;;;;;;;;;4441190;32;19937;-81
2022/12/26 09:42:49;;;;;;;;;;;;;;;;;;4442130;32;20001;-80
2022/12/26 09:45:14;;;;;;;;;;;;;;;;;;4454751;32;19943;-79
2022/12/26 09:47:39;;;;;;;;;;;;;;;;;;4441082;32;19936;-81
2022/12/26 09:50:08;;;;;;;;;;;;;;;;;;4442714;32;20256;-79
2022/12/26 09:52:33;;;;;;;;;;;;;;;;;;4460769;32;19967;-78
2022/12/26 09:54:58;;;;;;;;;;;;;;;;;;4459325;32;19945;-78
2022/12/26 09:57:23;;;;;;;;;;;;;;;;;;4449256;32;19930;-80
2022/12/26 09:59:48;;;;;;;;;;;;;;;;;;4462034;32;19936;-80
2022/12/26 10:02:13;;;;;;;;;;;;;;;;;;4462328;32;19959;-78
2022/12/26 10:04:38;;;;;;;;;;;;;;;;;;4453718;32;19947;-78
2022/12/26 10:07:03;;;;;;;;;;;;;;;;;;4452209;32;19944;-80
2022/12/26 10:09:29;;;;;;;;;;;;;;;;;;4451706;32;19956;-78
2022/12/26 10:11:54;;;;;;;;;;;;;;;;;;4453085;32;19940;-78
2022/12/26 10:14:19;;;;;;;;;;;;;;;;;;4452893;32;19969;-78
2022/12/26 10:16:44;;;;;;;;;;;;;;;;;;4451589;32;19945;-78
2022/12/26 10:19:09;;;;;;;;;;;;;;;;;;4452079;32;19994;-79
2022/12/26 10:21:34;;;;;;;;;;;;;;;;;;4451243;32;19956;-77
2022/12/26 10:24:00;;;;;;;;;;;;;;;;;;4451402;32;19940;-78
2022/12/26 10:26:25;;;;;;;;;;;;;;;;;;4451063;32;19947;-78
2022/12/26 10:28:50;;;;;;;;;;;;;;;;;;4437349;32;19956;-78
2022/12/26 10:31:15;;;;;;;;;;;;;;;;;;4451706;32;19959;-79
2022/12/26 10:33:40;;;;;;;;;;;;;;;;;;4451258;32;19947;-78
2022/12/26 10:36:05;;;;;;;;;;;;;;;;;;4451690;32;19944;-78
2022/12/26 10:38:30;;;;;;;;;;;;;;;;;;4451919;32;19940;-77
2022/12/26 10:40:56;;;;;;;;;;;;;;;;;;4451792;32;19970;-77
2022/12/26 10:43:21;;;;;;;;;;;;;;;;;;4437463;32;20365;-78
2022/12/26 10:45:46;;;;;;;;;;;;;;;;;;4451101;32;19972;-78
2022/12/26 10:48:11;;;;;;;;;;;;;;;;;;4436963;32;20319;-78
2022/12/26 10:50:36;;;;;;;;;;;;;;;;;;4451717;32;19933;-78
2022/12/26 10:53:01;;;;;;;;;;;;;;;;;;4451260;32;20125;-78
2022/12/26 10:55:26;;;;;;;;;;;;;;;;;;4452914;32;19951;-78
2022/12/26 10:57:51;;;;;;;;;;;;;;;;;;4437407;32;19988;-78
2022/12/26 11:00:16;;;;;;;;;;;;;;;;;;4453002;32;19940;-77
2022/12/26 11:02:41;;;;;;;;;;;;;;;;;;4452765;32;19971;-78
2022/12/26 11:05:06;;;;;;;;;;;;;;;;;;4440267;32;20027;-79
2022/12/26 11:07:32;;;;;;;;;;;;;;;;;;4440630;32;19948;-78
2022/12/26 11:10:00;;;;;;;;;;;;;;;;;;4441495;32;20003;-78
2022/12/26 11:12:25;;;;;;;;;;;;;;;;;;4455493;32;19951;-77
2022/12/26 11:14:50;;;;;;;;;;;;;;;;;;4456331;32;19932;-76
2022/12/26 11:17:15;;;;;;;;;;;;;;;;;;4439631;32;19936;-76
2022/12/26 11:19:40;;;;;;;;;;;;;;;;;;4453726;32;19932;-76
2022/12/26 11:22:05;;;;;;;;;;;;;;;;;;4453758;32;19992;-75
2022/12/26 11:24:30;;;;;;;;;;;;;;;;;;4453860;32;19933;-77
2022/12/26 11:26:55;;;;;;;;;;;;;;;;;;4439808;32;19936;-75
2022/12/26 11:29:21;;;;;;;;;;;;;;;;;;4454118;32;19932;-77
2022/12/26 11:31:46;;;;;;;;;;;;;;;;;;4453509;32;19963;-76
2022/12/26 11:34:12;;;;;;;;;;;;;;;;;;4453524;32;19933;-75
2022/12/26 11:36:39;;;;;;;;;;;;;;;;;;4439253;32;19986;-77
2022/12/26 11:39:04;;;;;;;;;;;;;;;;;;4439715;32;19965;-77
2022/12/26 11:41:32;;;;;;;;;;;;;;;;;;4439597;32;19944;-76
2022/12/26 11:43:57;;;;;;;;;;;;;;;;;;4453749;32;20319;-76
2022/12/26 11:46:22;;;;;;;;;;;;;;;;;;4453452;32;19947;-77
2022/12/26 11:48:48;;;;;;;;;;;;;;;;;;4453060;32;19933;-75
2022/12/26 11:51:13;;;;;;;;;;;;;;;;;;4453111;32;19936;-75
2022/12/26 11:53:38;;;;;;;;;;;;;;;;;;4453511;32;19948;-76
2022/12/26 11:56:03;;;;;;;;;;;;;;;;;;4452858;32;19933;-77
2022/12/26 11:58:29;;;;;;;;;;;;;;;;;;4453749;32;20310;-77
2022/12/26 12:00:54;;;;;;;;;;;;;;;;;;4439631;32;20321;-76
2022/12/26 12:03:19;;;;;;;;;;;;;;;;;;4453404;32;19985;-76
2022/12/26 12:05:44;;;;;;;;;;;;;;;;;;4453137;32;20365;-76
2022/12/26 12:08:09;;;;;;;;;;;;;;;;;;4452681;32;19983;-76
2022/12/26 12:10:34;;;;;;;;;;;;;;;;;;4452718;32;19936;-76
2022/12/26 12:12:59;;;;;;;;;;;;;;;;;;4453289;32;19966;-76
2022/12/26 12:15:25;;;;;;;;;;;;;;;;;;4452748;32;20257;-76
2022/12/26 12:17:50;;;;;;;;;;;;;;;;;;4452578;32;19981;-75
2022/12/26 12:20:15;;;;;;;;;;;;;;;;;;4453412;32;19991;-76
2022/12/26 12:22:40;;;;;;;;;;;;;;;;;;4453650;32;19973;-77
2022/12/26 12:25:05;;;;;;;;;;;;;;;;;;4452530;32;20096;-76
2022/12/26 12:27:30;;;;;;;;;;;;;;;;;;4452846;32;20302;-76
2022/12/26 12:29:55;;;;;;;;;;;;;;;;;;4438894;32;19967;-76
2022/12/26 12:32:20;;;;;;;;;;;;;;;;;;4455388;32;19936;-76
2022/12/26 12:34:45;;;;;;;;;;;;;;;;;;4453952;32;19969;-76
2022/12/26 12:37:10;;;;;;;;;;;;;;;;;;4452750;32;19936;-76
2022/12/26 12:39:36;;;;;;;;;;;;;;;;;;4452586;32;20358;-76
2022/12/26 12:42:01;;;;;;;;;;;;;;;;;;4454081;32;19933;-76
2022/12/26 12:44:26;;;;;;;;;;;;;;;;;;4452797;32;20015;-76
2022/12/26 12:46:51;;;;;;;;;;;;;;;;;;4452535;32;19963;-76
2022/12/26 12:49:16;;;;;;;;;;;;;;;;;;4452499;32;20257;-76
2022/12/26 12:51:41;;;;;;;;;;;;;;;;;;4453715;32;20360;-76
2022/12/26 12:54:06;;;;;;;;;;;;;;;;;;4451983;32;19936;-76
2022/12/26 12:56:31;;;;;;;;;;;;;;;;;;4451989;32;20336;-76
2022/12/26 12:58:57;;;;;;;;;;;;;;;;;;4452748;32;20242;-76
2022/12/26 13:01:22;;;;;;;;;;;;;;;;;;4452656;32;19947;-77
2022/12/26 13:03:47;;;;;;;;;;;;;;;;;;4439152;32;19976;-76
2022/12/26 13:06:12;;;;;;;;;;;;;;;;;;4452232;32;20273;-77
2022/12/26 13:08:37;;;;;;;;;;;;;;;;;;4452659;32;19987;-76
2022/12/26 13:11:02;;;;;;;;;;;;;;;;;;4453540;32;19932;-77
2022/12/26 13:13:27;;;;;;;;;;;;;;;;;;4446895;32;19968;-76
2022/12/26 13:15:52;;;;;;;;;;;;;;;;;;4460730;32;19932;-76
2022/12/26 13:18:17;;;;;;;;;;;;;;;;;;4461020;32;19951;-76
2022/12/26 13:20:42;;;;;;;;;;;;;;;;;;4459911;32;19973;-77
2022/12/26 13:25:52;;;;;;;;;;;;;;;;;;4453087;32;19951;-76
2022/12/26 13:28:17;;;;;;;;;;;;;;;;;;4453071;32;19972;-76
2022/12/26 13:30:42;;;;;;;;;;;;;;;;;;4451859;32;19970;-76
2022/12/26 13:33:07;;;;;;;;;;;;;;;;;;4452466;32;19976;-76
2022/12/26 13:35:32;;;;;;;;;;;;;;;;;;4452980;32;19967;-77
2022/12/26 13:37:57;;;;;;;;;;;;;;;;;;4438212;32;20089;-76
2022/12/26 13:40:22;;;;;;;;;;;;;;;;;;4437603;32;20341;-76
2022/12/26 13:45:31;;;;;;;;;;;;;;;;;;4453345;32;19992;-77
2022/12/26 13:47:56;;;;;;;;;;;;;;;;;;4455512;32;19945;-76
2022/12/26 13:50:21;;;;;;;;;;;;;;;;;;4454807;32;19952;-76
2022/12/26 13:52:46;;;;;;;;;;;;;;;;;;4454192;32;19941;-78
2022/12/26 13:55:12;;;;;;;;;;;;;;;;;;4454689;32;19969;-77
2022/12/26 13:57:41;;;;;;;;;;;;;;;;;;4439078;32;19940;-77
2022/12/26 14:00:06;;;;;;;;;;;;;;;;;;4453941;32;19941;-77
2022/12/26 14:02:31;;;;;;;;;;;;;;;;;;4455069;32;19932;-77
2022/12/26 14:04:56;;;;;;;;;;;;;;;;;;4441162;32;19932;-77
2022/12/26 14:07:22;;;;;;;;;;;;;;;;;;4453098;32;19970;-77
2022/12/26 14:09:47;;;;;;;;;;;;;;;;;;4440285;32;20300;-77
2022/12/26 14:12:12;;;;;;;;;;;;;;;;;;4453985;32;19947;-77
2022/12/26 14:14:37;;;;;;;;;;;;;;;;;;4438385;32;20006;-76
2022/12/26 14:17:02;;;;;;;;;;;;;;;;;;4450897;32;19941;-77
2022/12/26 14:19:27;;;;;;;;;;;;;;;;;;4437070;32;19974;-77
2022/12/26 14:21:52;;;;;;;;;;;;;;;;;;4451304;32;20322;-77
2022/12/26 14:24:18;;;;;;;;;;;;;;;;;;4451256;32;19972;-77
2022/12/26 14:26:43;;;;;;;;;;;;;;;;;;4436482;32;19947;-77
2022/12/26 14:29:08;;;;;;;;;;;;;;;;;;4451539;32;19936;-77
2022/12/26 14:31:33;;;;;;;;;;;;;;;;;;4452709;32;19933;-76
2022/12/26 14:33:58;;;;;;;;;;;;;;;;;;4438313;32;19971;-77
2022/12/26 14:36:24;;;;;;;;;;;;;;;;;;4451656;32;19945;-78
2022/12/26 14:38:49;;;;;;;;;;;;;;;;;;4440061;32;19948;-77
2022/12/26 14:43:58;;;;;;;;;;;;;;;;;;4455739;32;20003;-77
2022/12/26 14:46:23;;;;;;;;;;;;;;;;;;4453722;32;19937;-77
2022/12/26 14:48:49;;;;;;;;;;;;;;;;;;4458434;32;19943;-77
2022/12/26 14:51:14;;;;;;;;;;;;;;;;;;4441800;32;19984;-77
2022/12/26 14:53:39;;;;;;;;;;;;;;;;;;4458431;32;19932;-76
2022/12/26 14:56:04;;;;;;;;;;;;;;;;;;4456716;32;19969;-77
2022/12/26 14:58:29;;;;;;;;;;;;;;;;;;4440370;32;19973;-76
2022/12/26 15:00:54;;;;;;;;;;;;;;;;;;4454618;32;19956;-77
2022/12/26 15:03:19;;;;;;;;;;;;;;;;;;4455126;32;20215;-76
2022/12/26 15:05:45;;;;;;;;;;;;;;;;;;4455678;32;19932;-78
2022/12/26 15:08:10;;;;;;;;;;;;;;;;;;4441226;32;19936;-77
2022/12/26 15:10:35;;;;;;;;;;;;;;;;;;4440576;32;20215;-78
2022/12/26 15:13:00;;;;;;;;;;;;;;;;;;4440319;32;19991;-77
2022/12/26 15:15:26;;;;;;;;;;;;;;;;;;4440276;32;20291;-76
2022/12/26 15:17:52;;;;;;;;;;;;;;;;;;4440309;32;19996;-75
2022/12/26 15:20:17;;;;;;;;;;;;;;;;;;4454422;32;19947;-77
2022/12/26 15:22:42;;;;;;;;;;;;;;;;;;4454204;32;20062;-76
2022/12/26 15:25:07;;;;;;;;;;;;;;;;;;4454126;32;19971;-77
2022/12/26 15:27:32;;;;;;;;;;;;;;;;;;4454491;32;19932;-77
2022/12/26 15:29:57;;;;;;;;;;;;;;;;;;4440010;32;19971;-77
2022/12/26 15:32:22;;;;;;;;;;;;;;;;;;4453778;32;19967;-77
2022/12/26 15:34:47;;;;;;;;;;;;;;;;;;4454415;32;20113;-76
2022/12/26 15:37:12;;;;;;;;;;;;;;;;;;4454573;32;19972;-78
2022/12/26 15:39:39;;;;;;;;;;;;;;;;;;4440101;32;19972;-77
2022/12/26 15:42:04;;;;;;;;;;;;;;;;;;4439642;32;20330;-77
2022/12/26 15:44:29;;;;;;;;;;;;;;;;;;4439194;32;20337;-77
2022/12/26 15:46:54;;;;;;;;;;;;;;;;;;4454297;32;20238;-77
2022/12/26 15:49:19;;;;;;;;;;;;;;;;;;4454545;32;19984;-78
2022/12/26 15:51:44;;;;;;;;;;;;;;;;;;4453466;32;19933;-77
2022/12/26 15:54:09;;;;;;;;;;;;;;;;;;4453985;32;19942;-77
2022/12/26 15:56:35;;;;;;;;;;;;;;;;;;4453504;32;19944;-76
2022/12/26 15:59:00;;;;;;;;;;;;;;;;;;4453925;32;19959;-78
2022/12/26 16:01:25;;;;;;;;;;;;;;;;;;4455511;32;19940;-77
2022/12/26 16:03:50;;;;;;;;;;;;;;;;;;4455404;32;19932;-76
2022/12/26 16:06:15;;;;;;;;;;;;;;;;;;4454457;32;19973;-75
2022/12/26 16:08:40;;;;;;;;;;;;;;;;;;4453914;32;19951;-76
2022/12/26 16:11:05;;;;;;;;;;;;;;;;;;4454015;32;19971;-76
2022/12/26 16:13:30;;;;;;;;;;;;;;;;;;4455716;32;19943;-75
2022/12/26 16:15:56;;;;;;;;;;;;;;;;;;4439790;32;20298;-77
2022/12/26 16:18:21;;;;;;;;;;;;;;;;;;4453776;32;19940;-75
2022/12/26 16:23:33;;;;;;;;;;;;;;;;;;4454422;32;19930;-75
2022/12/26 16:26:01;;;;;;;;;;;;;;;;;;4439806;32;19951;-75
2022/12/26 16:28:26;;;;;;;;;;;;;;;;;;4454376;32;19940;-75
2022/12/26 16:30:51;;;;;;;;;;;;;;;;;;4456998;32;19948;-75
2022/12/26 16:33:16;;;;;;;;;;;;;;;;;;4455231;32;19936;-75
2022/12/26 16:35:41;;;;;;;;;;;;;;;;;;4455415;32;19932;-76
2022/12/26 16:38:07;;;;;;;;;;;;;;;;;;4455233;32;20399;-74
2022/12/26 16:40:32;;;;;;;;;;;;;;;;;;4456331;32;19955;-76
2022/12/26 16:42:57;;;;;;;;;;;;;;;;;;4442612;32;19947;-76
2022/12/26 16:45:22;;;;;;;;;;;;;;;;;;4456262;32;19973;-75
2022/12/26 16:47:48;;;;;;;;;;;;;;;;;;4455819;32;19967;-76
2022/12/26 16:50:13;;;;;;;;;;;;;;;;;;4456043;32;19947;-76
2022/12/26 16:52:38;;;;;;;;;;;;;;;;;;4456423;32;19937;-75
2022/12/26 16:55:03;;;;;;;;;;;;;;;;;;4455781;32;19941;-76
2022/12/26 16:57:29;;;;;;;;;;;;;;;;;;4456995;32;19956;-76
2022/12/26 16:59:54;;;;;;;;;;;;;;;;;;4439940;32;19932;-76
2022/12/26 17:02:19;;;;;;;;;;;;;;;;;;4453779;32;19932;-76
2022/12/26 17:04:44;;;;;;;;;;;;;;;;;;4440350;32;19960;-75
2022/12/26 17:07:09;;;;;;;;;;;;;;;;;;4454007;32;20342;-75
2022/12/26 17:09:35;;;;;;;;;;;;;;;;;;4453709;32;19947;-76
2022/12/26 17:12:00;;;;;;;;;;;;;;;;;;4453469;32;19954;-75
2022/12/26 17:14:25;;;;;;;;;;;;;;;;;;4452688;32;20370;-74
2022/12/26 17:16:50;;;;;;;;;;;;;;;;;;4438000;32;20338;-76
2022/12/26 17:19:15;;;;;;;;;;;;;;;;;;4452576;32;20256;-76
2022/12/26 17:21:40;;;;;;;;;;;;;;;;;;4452862;32;19976;-76
2022/12/26 17:24:06;;;;;;;;;;;;;;;;;;4453212;32;19936;-76
2022/12/26 17:26:31;;;;;;;;;;;;;;;;;;4452310;32;19947;-76
2022/12/26 17:28:56;;;;;;;;;;;;;;;;;;4437919;32;20284;-76
2022/12/26 17:31:21;;;;;;;;;;;;;;;;;;4452977;32;20259;-76
2022/12/26 17:33:46;;;;;;;;;;;;;;;;;;4453458;32;19969;-75
2022/12/26 17:36:12;;;;;;;;;;;;;;;;;;4438033;32;19948;-76
2022/12/26 17:38:38;;;;;;;;;;;;;;;;;;4452292;32;19979;-76
2022/12/26 17:41:03;;;;;;;;;;;;;;;;;;4438567;32;19977;-76
2022/12/26 17:43:28;;;;;;;;;;;;;;;;;;4437948;32;19975;-77
2022/12/26 17:45:53;;;;;;;;;;;;;;;;;;4451941;32;19936;-75
2022/12/26 17:48:18;;;;;;;;;;;;;;;;;;4438161;32;19971;-76
2022/12/26 17:50:43;;;;;;;;;;;;;;;;;;4438217;32;19939;-75
2022/12/26 17:53:09;;;;;;;;;;;;;;;;;;4438270;32;20393;-75
2022/12/26 17:55:34;;;;;;;;;;;;;;;;;;4439567;32;19932;-75
2022/12/26 17:57:59;;;;;;;;;;;;;;;;;;4452250;32;19993;-76
2022/12/26 18:00:24;;;;;;;;;;;;;;;;;;4452069;32;19932;-75
2022/12/26 18:02:49;;;;;;;;;;;;;;;;;;4451920;32;20347;-74
2022/12/26 18:05:14;;;;;;;;;;;;;;;;;;4451752;32;19951;-75
2022/12/26 18:07:39;;;;;;;;;;;;;;;;;;4452656;32;19980;-77
2022/12/26 18:10:04;;;;;;;;;;;;;;;;;;4451934;32;19932;-76
2022/12/26 18:12:29;;;;;;;;;;;;;;;;;;4452364;32;19932;-75
2022/12/26 18:14:55;;;;;;;;;;;;;;;;;;4454575;32;19992;-74
2022/12/26 18:17:20;;;;;;;;;;;;;;;;;;4455381;32;19988;-75
2022/12/26 18:19:45;;;;;;;;;;;;;;;;;;4455138;32;19943;-76
2022/12/26 18:22:10;;;;;;;;;;;;;;;;;;4454530;32;19936;-75
2022/12/26 18:24:35;;;;;;;;;;;;;;;;;;4454467;32;19937;-76
2022/12/26 18:27:00;;;;;;;;;;;;;;;;;;4440869;32;19981;-75
2022/12/26 18:29:25;;;;;;;;;;;;;;;;;;4454565;32;20247;-77
2022/12/26 18:31:50;;;;;;;;;;;;;;;;;;4440877;32;19929;-76
2022/12/26 18:34:15;;;;;;;;;;;;;;;;;;4440246;32;19936;-76
2022/12/26 18:36:41;;;;;;;;;;;;;;;;;;4454422;32;19972;-75
2022/12/26 18:39:07;;;;;;;;;;;;;;;;;;4454408;32;19945;-76
2022/12/26 18:41:32;;;;;;;;;;;;;;;;;;4455920;32;19954;-76
2022/12/26 18:43:57;;;;;;;;;;;;;;;;;;4454792;32;19937;-77
2022/12/26 18:46:22;;;;;;;;;;;;;;;;;;4454424;32;19956;-75
2022/12/26 18:48:47;;;;;;;;;;;;;;;;;;4454226;32;20314;-75
2022/12/26 18:51:12;;;;;;;;;;;;;;;;;;4440184;32;19937;-76